sensor_id;sensor_type;location;lat;lon;timestamp;P1;durP1;ratioP1;P2;durP2;ratioP2
48578;SDS011;34357;51.948;6.132;2022-11-18T00:00:46;11.38;;;3.40;;
48578;SDS011;34357;51.948;6.132;2022-11-18T00:03:12;11.88;;;3.35;;
48578;SDS011;34357;51.948;6.132;2022-11-18T00:05:37;9.60;;;2.78;;
48578;SDS011;34357;51.948;6.132;2022-11-18T00:08:03;10.20;;;3.25;;
48578;SDS011;34357;51.948;6.132;2022-11-18T00:10:29;7.25;;;3.25;;
48578;SDS011;34357;51.948;6.132;2022-11-18T00:12:55;8.05;;;3.00;;
48578;SDS011;34357;51.948;6.132;2022-11-18T00:15:40;8.73;;;2.72;;
48578;SDS011;34357;51.948;6.132;2022-11-18T00:18:06;13.25;;;3.47;;
48578;SDS011;34357;51.948;6.132;2022-11-18T00:20:32;10.90;;;2.90;;
48578;SDS011;34357;51.948;6.132;2022-11-18T00:22:58;11.52;;;3.10;;
48578;SDS011;34357;51.948;6.132;2022-11-18T00:25:24;9.85;;;3.17;;
48578;SDS011;34357;51.948;6.132;2022-11-18T00:27:50;9.23;;;3.10;;
48578;SDS011;34357;51.948;6.132;2022-11-18T00:30:16;10.57;;;2.90;;
48578;SDS011;34357;51.948;6.132;2022-11-18T00:32:42;9.98;;;2.75;;
48578;SDS011;34357;51.948;6.132;2022-11-18T00:35:09;12.68;;;2.75;;
48578;SDS011;34357;51.948;6.132;2022-11-18T00:37:34;11.55;;;3.22;;
48578;SDS011;34357;51.948;6.132;2022-11-18T00:40:00;9.13;;;2.80;;
48578;SDS011;34357;51.948;6.132;2022-11-18T00:42:26;9.27;;;2.75;;
48578;SDS011;34357;51.948;6.132;2022-11-18T00:45:10;10.25;;;3.58;;
48578;SDS011;34357;51.948;6.132;2022-11-18T00:47:36;7.90;;;2.90;;
48578;SDS011;34357;51.948;6.132;2022-11-18T00:50:01;9.57;;;3.00;;
48578;SDS011;34357;51.948;6.132;2022-11-18T00:52:27;10.35;;;2.92;;
48578;SDS011;34357;51.948;6.132;2022-11-18T00:54:53;8.05;;;2.90;;
48578;SDS011;34357;51.948;6.132;2022-11-18T00:57:19;11.15;;;3.28;;
48578;SDS011;34357;51.948;6.132;2022-11-18T00:59:44;8.48;;;2.60;;
48578;SDS011;34357;51.948;6.132;2022-11-18T01:02:10;8.88;;;2.83;;
48578;SDS011;34357;51.948;6.132;2022-11-18T01:04:36;8.32;;;2.88;;
48578;SDS011;34357;51.948;6.132;2022-11-18T01:07:01;11.65;;;2.92;;
48578;SDS011;34357;51.948;6.132;2022-11-18T01:09:27;10.38;;;3.20;;
48578;SDS011;34357;51.948;6.132;2022-11-18T01:11:53;8.27;;;3.00;;
48578;SDS011;34357;51.948;6.132;2022-11-18T01:14:37;7.68;;;2.83;;
48578;SDS011;34357;51.948;6.132;2022-11-18T01:17:03;11.38;;;3.20;;
48578;SDS011;34357;51.948;6.132;2022-11-18T01:19:28;8.52;;;2.75;;
48578;SDS011;34357;51.948;6.132;2022-11-18T01:21:54;10.18;;;2.83;;
48578;SDS011;34357;51.948;6.132;2022-11-18T01:24:27;8.73;;;2.80;;
48578;SDS011;34357;51.948;6.132;2022-11-18T01:26:54;9.57;;;3.78;;
48578;SDS011;34357;51.948;6.132;2022-11-18T01:29:19;14.63;;;3.67;;
48578;SDS011;34357;51.948;6.132;2022-11-18T01:31:45;12.10;;;3.17;;
48578;SDS011;34357;51.948;6.132;2022-11-18T01:34:11;9.70;;;3.58;;
48578;SDS011;34357;51.948;6.132;2022-11-18T01:36:36;9.93;;;3.13;;
48578;SDS011;34357;51.948;6.132;2022-11-18T01:39:02;15.85;;;3.88;;
48578;SDS011;34357;51.948;6.132;2022-11-18T01:41:28;7.18;;;3.10;;
48578;SDS011;34357;51.948;6.132;2022-11-18T01:43:58;10.55;;;3.40;;
48578;SDS011;34357;51.948;6.132;2022-11-18T01:46:27;9.85;;;3.70;;
48578;SDS011;34357;51.948;6.132;2022-11-18T01:48:56;9.25;;;3.35;;
48578;SDS011;34357;51.948;6.132;2022-11-18T01:51:24;6.80;;;3.05;;
48578;SDS011;34357;51.948;6.132;2022-11-18T01:53:57;10.80;;;3.78;;
48578;SDS011;34357;51.948;6.132;2022-11-18T01:56:36;10.00;;;3.05;;
48578;SDS011;34357;51.948;6.132;2022-11-18T01:59:07;8.43;;;3.10;;
48578;SDS011;34357;51.948;6.132;2022-11-18T02:01:39;10.10;;;3.25;;
48578;SDS011;34357;51.948;6.132;2022-11-18T02:04:06;9.52;;;3.15;;
48578;SDS011;34357;51.948;6.132;2022-11-18T02:06:33;9.90;;;3.00;;
48578;SDS011;34357;51.948;6.132;2022-11-18T02:08:59;9.43;;;3.22;;
48578;SDS011;34357;51.948;6.132;2022-11-18T02:11:25;12.25;;;3.72;;
48578;SDS011;34357;51.948;6.132;2022-11-18T02:14:10;12.27;;;3.10;;
48578;SDS011;34357;51.948;6.132;2022-11-18T02:22:14;16.50;;;3.00;;
48578;SDS011;34357;51.948;6.132;2022-11-18T02:25:04;11.43;;;3.85;;
48578;SDS011;34357;51.948;6.132;2022-11-18T02:30:41;9.68;;;3.35;;
48578;SDS011;34357;51.948;6.132;2022-11-18T02:33:23;8.73;;;3.40;;
48578;SDS011;34357;51.948;6.132;2022-11-18T02:36:07;9.50;;;3.30;;
48578;SDS011;34357;51.948;6.132;2022-11-18T02:38:50;7.90;;;3.00;;
48578;SDS011;34357;51.948;6.132;2022-11-18T02:41:24;11.38;;;4.22;;
48578;SDS011;34357;51.948;6.132;2022-11-18T02:43:55;10.85;;;3.83;;
48578;SDS011;34357;51.948;6.132;2022-11-18T02:46:28;8.32;;;3.53;;
48578;SDS011;34357;51.948;6.132;2022-11-18T02:49:00;9.52;;;3.50;;
48578;SDS011;34357;51.948;6.132;2022-11-18T02:51:29;14.32;;;4.07;;
48578;SDS011;34357;51.948;6.132;2022-11-18T02:54:01;11.55;;;4.47;;
48578;SDS011;34357;51.948;6.132;2022-11-18T02:56:31;13.82;;;3.60;;
48578;SDS011;34357;51.948;6.132;2022-11-18T02:58:58;9.35;;;4.00;;
48578;SDS011;34357;51.948;6.132;2022-11-18T03:01:25;11.82;;;3.80;;
48578;SDS011;34357;51.948;6.132;2022-11-18T03:03:53;14.15;;;4.05;;
48578;SDS011;34357;51.948;6.132;2022-11-18T03:06:28;9.55;;;4.00;;
48578;SDS011;34357;51.948;6.132;2022-11-18T03:11:50;12.20;;;4.38;;
48578;SDS011;34357;51.948;6.132;2022-11-18T03:14:27;10.73;;;4.75;;
48578;SDS011;34357;51.948;6.132;2022-11-18T03:17:08;11.10;;;4.43;;
48578;SDS011;34357;51.948;6.132;2022-11-18T03:23:05;11.05;;;4.28;;
48578;SDS011;34357;51.948;6.132;2022-11-18T03:25:52;14.23;;;4.63;;
48578;SDS011;34357;51.948;6.132;2022-11-18T03:33:49;10.18;;;4.22;;
48578;SDS011;34357;51.948;6.132;2022-11-18T03:36:21;11.93;;;4.25;;
48578;SDS011;34357;51.948;6.132;2022-11-18T03:38:52;14.45;;;4.07;;
48578;SDS011;34357;51.948;6.132;2022-11-18T03:41:21;7.95;;;3.88;;
48578;SDS011;34357;51.948;6.132;2022-11-18T03:43:57;12.25;;;3.75;;
48578;SDS011;34357;51.948;6.132;2022-11-18T03:46:30;9.40;;;4.57;;
48578;SDS011;34357;51.948;6.132;2022-11-18T03:49:02;15.20;;;4.93;;
48578;SDS011;34357;51.948;6.132;2022-11-18T03:51:32;11.23;;;4.43;;
48578;SDS011;34357;51.948;6.132;2022-11-18T03:54:37;12.20;;;5.47;;
48578;SDS011;34357;51.948;6.132;2022-11-18T03:57:11;11.82;;;4.45;;
48578;SDS011;34357;51.948;6.132;2022-11-18T03:59:48;11.90;;;4.65;;
48578;SDS011;34357;51.948;6.132;2022-11-18T04:02:22;15.88;;;6.60;;
48578;SDS011;34357;51.948;6.132;2022-11-18T04:04:50;16.90;;;6.07;;
48578;SDS011;34357;51.948;6.132;2022-11-18T04:07:29;18.60;;;7.00;;
48578;SDS011;34357;51.948;6.132;2022-11-18T04:12:45;16.58;;;5.93;;
48578;SDS011;34357;51.948;6.132;2022-11-18T04:15:20;14.23;;;5.85;;
48578;SDS011;34357;51.948;6.132;2022-11-18T04:17:46;13.98;;;5.97;;
48578;SDS011;34357;51.948;6.132;2022-11-18T04:20:13;20.05;;;7.43;;
48578;SDS011;34357;51.948;6.132;2022-11-18T04:22:43;14.50;;;5.45;;
48578;SDS011;34357;51.948;6.132;2022-11-18T04:25:09;14.68;;;5.60;;
48578;SDS011;34357;51.948;6.132;2022-11-18T04:27:34;15.57;;;6.25;;
48578;SDS011;34357;51.948;6.132;2022-11-18T04:30:00;21.85;;;6.60;;
48578;SDS011;34357;51.948;6.132;2022-11-18T04:32:26;16.33;;;6.97;;
48578;SDS011;34357;51.948;6.132;2022-11-18T04:34:52;11.88;;;6.10;;
48578;SDS011;34357;51.948;6.132;2022-11-18T04:37:18;11.18;;;5.47;;
48578;SDS011;34357;51.948;6.132;2022-11-18T04:39:43;13.43;;;6.07;;
48578;SDS011;34357;51.948;6.132;2022-11-18T04:42:09;18.15;;;6.85;;
48578;SDS011;34357;51.948;6.132;2022-11-18T04:44:34;18.90;;;7.68;;
48578;SDS011;34357;51.948;6.132;2022-11-18T04:47:01;13.65;;;6.70;;
48578;SDS011;34357;51.948;6.132;2022-11-18T04:49:29;20.23;;;7.63;;
48578;SDS011;34357;51.948;6.132;2022-11-18T04:51:55;21.02;;;7.95;;
48578;SDS011;34357;51.948;6.132;2022-11-18T04:54:22;19.23;;;7.78;;
48578;SDS011;34357;51.948;6.132;2022-11-18T04:56:49;17.77;;;8.23;;
48578;SDS011;34357;51.948;6.132;2022-11-18T04:59:15;20.75;;;8.02;;
48578;SDS011;34357;51.948;6.132;2022-11-18T05:01:43;18.15;;;7.38;;
48578;SDS011;34357;51.948;6.132;2022-11-18T05:04:16;17.17;;;7.90;;
48578;SDS011;34357;51.948;6.132;2022-11-18T05:06:43;21.10;;;7.97;;
48578;SDS011;34357;51.948;6.132;2022-11-18T05:09:10;16.73;;;8.02;;
48578;SDS011;34357;51.948;6.132;2022-11-18T05:11:35;18.13;;;7.85;;
48578;SDS011;34357;51.948;6.132;2022-11-18T05:14:20;20.27;;;8.82;;
48578;SDS011;34357;51.948;6.132;2022-11-18T05:16:46;20.25;;;8.48;;
48578;SDS011;34357;51.948;6.132;2022-11-18T05:19:11;18.65;;;8.88;;
48578;SDS011;34357;51.948;6.132;2022-11-18T05:21:37;16.92;;;8.55;;
48578;SDS011;34357;51.948;6.132;2022-11-18T05:24:03;18.75;;;8.82;;
48578;SDS011;34357;51.948;6.132;2022-11-18T05:26:29;15.48;;;7.65;;
48578;SDS011;34357;51.948;6.132;2022-11-18T05:28:55;23.77;;;8.95;;
48578;SDS011;34357;51.948;6.132;2022-11-18T05:31:21;13.32;;;7.70;;
48578;SDS011;34357;51.948;6.132;2022-11-18T05:33:47;17.85;;;7.78;;
48578;SDS011;34357;51.948;6.132;2022-11-18T05:36:14;17.42;;;7.80;;
48578;SDS011;34357;51.948;6.132;2022-11-18T05:38:41;20.60;;;8.15;;
48578;SDS011;34357;51.948;6.132;2022-11-18T05:41:08;18.10;;;8.13;;
48578;SDS011;34357;51.948;6.132;2022-11-18T05:43:34;17.85;;;7.53;;
48578;SDS011;34357;51.948;6.132;2022-11-18T05:46:00;18.02;;;8.38;;
48578;SDS011;34357;51.948;6.132;2022-11-18T05:48:26;18.02;;;8.60;;
48578;SDS011;34357;51.948;6.132;2022-11-18T05:50:53;16.73;;;8.07;;
48578;SDS011;34357;51.948;6.132;2022-11-18T05:53:21;18.67;;;9.38;;
48578;SDS011;34357;51.948;6.132;2022-11-18T05:55:53;24.48;;;9.48;;
48578;SDS011;34357;51.948;6.132;2022-11-18T05:58:25;21.58;;;9.10;;
48578;SDS011;34357;51.948;6.132;2022-11-18T06:00:51;17.83;;;9.82;;
48578;SDS011;34357;51.948;6.132;2022-11-18T06:03:22;18.95;;;8.80;;
48578;SDS011;34357;51.948;6.132;2022-11-18T06:05:54;18.00;;;9.18;;
48578;SDS011;34357;51.948;6.132;2022-11-18T06:08:20;20.13;;;9.80;;
48578;SDS011;34357;51.948;6.132;2022-11-18T06:10:51;19.58;;;9.55;;
48578;SDS011;34357;51.948;6.132;2022-11-18T06:13:19;21.95;;;10.63;;
48578;SDS011;34357;51.948;6.132;2022-11-18T06:15:49;23.30;;;10.45;;
48578;SDS011;34357;51.948;6.132;2022-11-18T06:18:17;24.50;;;11.13;;
48578;SDS011;34357;51.948;6.132;2022-11-18T06:20:53;20.33;;;10.30;;
48578;SDS011;34357;51.948;6.132;2022-11-18T06:23:28;23.08;;;9.82;;
48578;SDS011;34357;51.948;6.132;2022-11-18T06:25:58;20.15;;;9.85;;
48578;SDS011;34357;51.948;6.132;2022-11-18T06:28:23;27.80;;;10.75;;
48578;SDS011;34357;51.948;6.132;2022-11-18T06:30:51;23.58;;;11.18;;
48578;SDS011;34357;51.948;6.132;2022-11-18T06:33:17;21.13;;;12.27;;
48578;SDS011;34357;51.948;6.132;2022-11-18T06:35:42;18.65;;;10.82;;
48578;SDS011;34357;51.948;6.132;2022-11-18T06:38:08;22.75;;;11.05;;
48578;SDS011;34357;51.948;6.132;2022-11-18T06:40:34;19.98;;;10.55;;
48578;SDS011;34357;51.948;6.132;2022-11-18T06:43:07;19.65;;;10.48;;
48578;SDS011;34357;51.948;6.132;2022-11-18T06:45:52;22.40;;;10.07;;
48578;SDS011;34357;51.948;6.132;2022-11-18T06:48:41;22.85;;;9.98;;
48578;SDS011;34357;51.948;6.132;2022-11-18T06:51:06;20.55;;;9.20;;
48578;SDS011;34357;51.948;6.132;2022-11-18T06:53:32;17.90;;;9.32;;
48578;SDS011;34357;51.948;6.132;2022-11-18T06:56:05;20.10;;;9.60;;
48578;SDS011;34357;51.948;6.132;2022-11-18T06:58:32;23.02;;;9.70;;
48578;SDS011;34357;51.948;6.132;2022-11-18T07:01:07;22.33;;;9.30;;
48578;SDS011;34357;51.948;6.132;2022-11-18T07:03:46;18.25;;;9.63;;
48578;SDS011;34357;51.948;6.132;2022-11-18T07:06:14;16.58;;;9.65;;
48578;SDS011;34357;51.948;6.132;2022-11-18T07:08:50;19.08;;;9.80;;
48578;SDS011;34357;51.948;6.132;2022-11-18T07:11:18;22.98;;;10.13;;
48578;SDS011;34357;51.948;6.132;2022-11-18T07:13:46;20.30;;;10.32;;
48578;SDS011;34357;51.948;6.132;2022-11-18T07:16:13;22.40;;;10.02;;
48578;SDS011;34357;51.948;6.132;2022-11-18T07:18:41;21.50;;;10.50;;
48578;SDS011;34357;51.948;6.132;2022-11-18T07:21:08;21.15;;;9.70;;
48578;SDS011;34357;51.948;6.132;2022-11-18T07:23:35;21.02;;;10.02;;
48578;SDS011;34357;51.948;6.132;2022-11-18T07:26:02;27.75;;;10.18;;
48578;SDS011;34357;51.948;6.132;2022-11-18T07:28:28;22.25;;;10.80;;
48578;SDS011;34357;51.948;6.132;2022-11-18T07:33:27;18.10;;;10.52;;
48578;SDS011;34357;51.948;6.132;2022-11-18T07:35:54;20.15;;;9.63;;
48578;SDS011;34357;51.948;6.132;2022-11-18T07:38:19;16.23;;;9.10;;
48578;SDS011;34357;51.948;6.132;2022-11-18T07:40:45;14.60;;;8.85;;
48578;SDS011;34357;51.948;6.132;2022-11-18T07:43:11;17.60;;;10.13;;
48578;SDS011;34357;51.948;6.132;2022-11-18T07:45:36;20.33;;;9.75;;
48578;SDS011;34357;51.948;6.132;2022-11-18T07:48:02;20.05;;;9.45;;
48578;SDS011;34357;51.948;6.132;2022-11-18T07:50:29;22.33;;;9.98;;
48578;SDS011;34357;51.948;6.132;2022-11-18T07:52:55;23.30;;;9.85;;
48578;SDS011;34357;51.948;6.132;2022-11-18T07:55:21;23.48;;;8.82;;
48578;SDS011;34357;51.948;6.132;2022-11-18T07:57:47;20.10;;;8.43;;
48578;SDS011;34357;51.948;6.132;2022-11-18T08:00:13;15.60;;;8.00;;
48578;SDS011;34357;51.948;6.132;2022-11-18T08:02:39;16.05;;;8.93;;
48578;SDS011;34357;51.948;6.132;2022-11-18T08:05:05;14.43;;;8.05;;
48578;SDS011;34357;51.948;6.132;2022-11-18T08:07:31;21.77;;;8.00;;
48578;SDS011;34357;51.948;6.132;2022-11-18T08:09:56;13.43;;;7.18;;
48578;SDS011;34357;51.948;6.132;2022-11-18T08:12:22;15.70;;;7.72;;
48578;SDS011;34357;51.948;6.132;2022-11-18T08:14:47;11.50;;;6.53;;
48578;SDS011;34357;51.948;6.132;2022-11-18T08:17:13;13.65;;;7.15;;
48578;SDS011;34357;51.948;6.132;2022-11-18T08:19:39;15.95;;;7.53;;
48578;SDS011;34357;51.948;6.132;2022-11-18T08:22:04;14.05;;;6.78;;
48578;SDS011;34357;51.948;6.132;2022-11-18T08:24:30;14.45;;;6.68;;
48578;SDS011;34357;51.948;6.132;2022-11-18T08:26:56;17.27;;;6.47;;
48578;SDS011;34357;51.948;6.132;2022-11-18T08:29:21;18.50;;;6.63;;
48578;SDS011;34357;51.948;6.132;2022-11-18T08:31:47;14.85;;;6.53;;
48578;SDS011;34357;51.948;6.132;2022-11-18T08:34:13;13.57;;;6.40;;
48578;SDS011;34357;51.948;6.132;2022-11-18T08:36:39;13.55;;;6.50;;
48578;SDS011;34357;51.948;6.132;2022-11-18T08:39:06;11.32;;;6.22;;
48578;SDS011;34357;51.948;6.132;2022-11-18T08:41:36;11.93;;;5.93;;
48578;SDS011;34357;51.948;6.132;2022-11-18T08:44:03;14.15;;;6.00;;
48578;SDS011;34357;51.948;6.132;2022-11-18T08:46:30;12.98;;;5.97;;
48578;SDS011;34357;51.948;6.132;2022-11-18T08:48:56;11.38;;;6.50;;
48578;SDS011;34357;51.948;6.132;2022-11-18T08:51:22;9.63;;;6.35;;
48578;SDS011;34357;51.948;6.132;2022-11-18T08:53:50;11.60;;;6.03;;
48578;SDS011;34357;51.948;6.132;2022-11-18T08:56:16;10.13;;;5.63;;
48578;SDS011;34357;51.948;6.132;2022-11-18T08:58:44;16.83;;;6.68;;
48578;SDS011;34357;51.948;6.132;2022-11-18T09:01:10;9.27;;;5.60;;
48578;SDS011;34357;51.948;6.132;2022-11-18T09:03:36;15.75;;;6.35;;
48578;SDS011;34357;51.948;6.132;2022-11-18T09:06:09;11.38;;;6.68;;
48578;SDS011;34357;51.948;6.132;2022-11-18T09:08:39;9.10;;;5.65;;
48578;SDS011;34357;51.948;6.132;2022-11-18T09:11:09;14.52;;;6.40;;
48578;SDS011;34357;51.948;6.132;2022-11-18T09:13:45;12.27;;;6.10;;
48578;SDS011;34357;51.948;6.132;2022-11-18T09:16:11;11.18;;;6.35;;
48578;SDS011;34357;51.948;6.132;2022-11-18T09:18:38;9.15;;;6.30;;
48578;SDS011;34357;51.948;6.132;2022-11-18T09:21:04;14.00;;;6.15;;
48578;SDS011;34357;51.948;6.132;2022-11-18T09:23:32;12.25;;;5.32;;
48578;SDS011;34357;51.948;6.132;2022-11-18T09:26:03;10.75;;;5.22;;
48578;SDS011;34357;51.948;6.132;2022-11-18T09:28:34;9.80;;;5.57;;
48578;SDS011;34357;51.948;6.132;2022-11-18T09:31:18;13.90;;;5.70;;
48578;SDS011;34357;51.948;6.132;2022-11-18T09:33:44;11.07;;;5.18;;
48578;SDS011;34357;51.948;6.132;2022-11-18T09:36:11;11.50;;;5.20;;
48578;SDS011;34357;51.948;6.132;2022-11-18T09:38:40;15.05;;;5.53;;
48578;SDS011;34357;51.948;6.132;2022-11-18T09:43:42;12.00;;;5.55;;
48578;SDS011;34357;51.948;6.132;2022-11-18T09:46:18;14.90;;;5.85;;
48578;SDS011;34357;51.948;6.132;2022-11-18T09:48:50;10.73;;;4.60;;
48578;SDS011;34357;51.948;6.132;2022-11-18T09:51:38;11.65;;;4.97;;
48578;SDS011;34357;51.948;6.132;2022-11-18T09:54:10;11.60;;;5.65;;
48578;SDS011;34357;51.948;6.132;2022-11-18T09:56:41;8.55;;;5.35;;
48578;SDS011;34357;51.948;6.132;2022-11-18T09:59:08;13.18;;;5.55;;
48578;SDS011;34357;51.948;6.132;2022-11-18T10:01:37;12.70;;;5.22;;
48578;SDS011;34357;51.948;6.132;2022-11-18T10:04:02;9.73;;;5.03;;
48578;SDS011;34357;51.948;6.132;2022-11-18T10:06:28;14.00;;;4.80;;
48578;SDS011;34357;51.948;6.132;2022-11-18T10:11:51;13.70;;;4.90;;
48578;SDS011;34357;51.948;6.132;2022-11-18T10:17:09;11.05;;;5.18;;
48578;SDS011;34357;51.948;6.132;2022-11-18T10:24:52;13.40;;;4.85;;
48578;SDS011;34357;51.948;6.132;2022-11-18T10:27:20;11.30;;;5.18;;
48578;SDS011;34357;51.948;6.132;2022-11-18T10:29:48;11.40;;;5.10;;
48578;SDS011;34357;51.948;6.132;2022-11-18T10:32:18;11.25;;;6.78;;
48578;SDS011;34357;51.948;6.132;2022-11-18T10:39:53;12.50;;;5.07;;
48578;SDS011;34357;51.948;6.132;2022-11-18T10:42:25;12.10;;;5.20;;
48578;SDS011;34357;51.948;6.132;2022-11-18T10:44:51;10.93;;;5.25;;
48578;SDS011;34357;51.948;6.132;2022-11-18T10:47:27;8.57;;;4.65;;
48578;SDS011;34357;51.948;6.132;2022-11-18T10:49:56;8.43;;;4.75;;
48578;SDS011;34357;51.948;6.132;2022-11-18T10:52:24;12.38;;;5.88;;
48578;SDS011;34357;51.948;6.132;2022-11-18T10:57:41;12.82;;;5.55;;
48578;SDS011;34357;51.948;6.132;2022-11-18T11:00:49;13.02;;;4.88;;
48578;SDS011;34357;51.948;6.132;2022-11-18T11:02:56;13.52;;;5.80;;
48578;SDS011;34357;51.948;6.132;2022-11-18T11:05:22;10.88;;;4.88;;
48578;SDS011;34357;51.948;6.132;2022-11-18T11:08:05;9.07;;;4.82;;
48578;SDS011;34357;51.948;6.132;2022-11-18T11:10:52;17.15;;;5.50;;
48578;SDS011;34357;51.948;6.132;2022-11-18T11:13:23;9.88;;;4.80;;
48578;SDS011;34357;51.948;6.132;2022-11-18T11:15:52;15.52;;;5.20;;
48578;SDS011;34357;51.948;6.132;2022-11-18T11:18:23;10.90;;;5.70;;
48578;SDS011;34357;51.948;6.132;2022-11-18T11:21:16;11.57;;;5.28;;
48578;SDS011;34357;51.948;6.132;2022-11-18T11:23:44;7.97;;;5.63;;
48578;SDS011;34357;51.948;6.132;2022-11-18T11:31:32;15.20;;;5.80;;
48578;SDS011;34357;51.948;6.132;2022-11-18T11:36:31;9.30;;;5.30;;
48578;SDS011;34357;51.948;6.132;2022-11-18T11:56:24;16.75;;;6.88;;
48578;SDS011;34357;51.948;6.132;2022-11-18T11:59:14;12.18;;;6.40;;
48578;SDS011;34357;51.948;6.132;2022-11-18T12:04:36;15.60;;;6.90;;
48578;SDS011;34357;51.948;6.132;2022-11-18T12:07:13;12.88;;;6.30;;
48578;SDS011;34357;51.948;6.132;2022-11-18T12:09:50;14.90;;;6.82;;
48578;SDS011;34357;51.948;6.132;2022-11-18T12:12:24;11.75;;;6.15;;
48578;SDS011;34357;51.948;6.132;2022-11-18T12:17:53;17.35;;;6.07;;
48578;SDS011;34357;51.948;6.132;2022-11-18T12:23:13;11.52;;;6.30;;
48578;SDS011;34357;51.948;6.132;2022-11-18T12:33:52;11.50;;;5.28;;
48578;SDS011;34357;51.948;6.132;2022-11-18T12:38:57;14.27;;;5.75;;
48578;SDS011;34357;51.948;6.132;2022-11-18T12:44:38;20.23;;;6.32;;
48578;SDS011;34357;51.948;6.132;2022-11-18T12:47:10;15.52;;;6.57;;
48578;SDS011;34357;51.948;6.132;2022-11-18T12:54:54;12.48;;;5.00;;
48578;SDS011;34357;51.948;6.132;2022-11-18T12:57:39;9.75;;;4.45;;
48578;SDS011;34357;51.948;6.132;2022-11-18T13:03:20;10.73;;;4.72;;
48578;SDS011;34357;51.948;6.132;2022-11-18T13:05:48;13.27;;;4.78;;
48578;SDS011;34357;51.948;6.132;2022-11-18T13:08:15;9.75;;;4.57;;
48578;SDS011;34357;51.948;6.132;2022-11-18T13:13:21;14.10;;;4.72;;
48578;SDS011;34357;51.948;6.132;2022-11-18T13:15:54;11.10;;;5.97;;
48578;SDS011;34357;51.948;6.132;2022-11-18T13:18:51;10.88;;;5.32;;
48578;SDS011;34357;51.948;6.132;2022-11-18T13:21:24;12.95;;;5.13;;
48578;SDS011;34357;51.948;6.132;2022-11-18T13:24:14;15.10;;;5.45;;
48578;SDS011;34357;51.948;6.132;2022-11-18T13:26:43;15.88;;;5.22;;
48578;SDS011;34357;51.948;6.132;2022-11-18T13:34:23;14.35;;;3.97;;
48578;SDS011;34357;51.948;6.132;2022-11-18T13:36:51;12.90;;;3.88;;
48578;SDS011;34357;51.948;6.132;2022-11-18T13:44:23;11.02;;;4.10;;
48578;SDS011;34357;51.948;6.132;2022-11-18T13:46:53;10.23;;;4.40;;
48578;SDS011;34357;51.948;6.132;2022-11-18T13:51:54;12.10;;;5.28;;
48578;SDS011;34357;51.948;6.132;2022-11-18T13:54:22;20.35;;;6.13;;
48578;SDS011;34357;51.948;6.132;2022-11-18T13:56:49;13.80;;;5.75;;
48578;SDS011;34357;51.948;6.132;2022-11-18T13:59:16;22.40;;;6.57;;
48578;SDS011;34357;51.948;6.132;2022-11-18T14:01:45;14.45;;;5.30;;
48578;SDS011;34357;51.948;6.132;2022-11-18T14:04:18;18.27;;;6.88;;
48578;SDS011;34357;51.948;6.132;2022-11-18T14:06:46;19.00;;;5.97;;
48578;SDS011;34357;51.948;6.132;2022-11-18T14:19:45;12.55;;;4.68;;
48578;SDS011;34357;51.948;6.132;2022-11-18T14:22:14;11.10;;;3.92;;
48578;SDS011;34357;51.948;6.132;2022-11-18T14:24:41;13.57;;;3.42;;
48578;SDS011;34357;51.948;6.132;2022-11-18T14:27:32;12.95;;;3.97;;
48578;SDS011;34357;51.948;6.132;2022-11-18T14:29:53;11.18;;;4.60;;
48578;SDS011;34357;51.948;6.132;2022-11-18T14:32:18;14.63;;;5.45;;
48578;SDS011;34357;51.948;6.132;2022-11-18T14:34:45;14.15;;;4.63;;
48578;SDS011;34357;51.948;6.132;2022-11-18T14:37:22;12.55;;;4.05;;
48578;SDS011;34357;51.948;6.132;2022-11-18T14:39:55;11.30;;;4.30;;
48578;SDS011;34357;51.948;6.132;2022-11-18T14:42:22;9.25;;;4.07;;
48578;SDS011;34357;51.948;6.132;2022-11-18T14:44:49;13.35;;;4.10;;
48578;SDS011;34357;51.948;6.132;2022-11-18T14:47:27;137.75;;;16.77;;
48578;SDS011;34357;51.948;6.132;2022-11-18T14:49:54;16.25;;;5.50;;
48578;SDS011;34357;51.948;6.132;2022-11-18T14:52:20;17.13;;;5.40;;
48578;SDS011;34357;51.948;6.132;2022-11-18T14:54:46;16.55;;;5.47;;
48578;SDS011;34357;51.948;6.132;2022-11-18T14:57:14;22.13;;;6.07;;
48578;SDS011;34357;51.948;6.132;2022-11-18T14:59:41;15.73;;;5.78;;
48578;SDS011;34357;51.948;6.132;2022-11-18T15:02:14;10.45;;;5.38;;
48578;SDS011;34357;51.948;6.132;2022-11-18T15:04:42;14.70;;;5.43;;
48578;SDS011;34357;51.948;6.132;2022-11-18T15:07:08;13.68;;;5.38;;
48578;SDS011;34357;51.948;6.132;2022-11-18T15:09:38;20.00;;;6.15;;
48578;SDS011;34357;51.948;6.132;2022-11-18T15:12:04;9.27;;;5.03;;
48578;SDS011;34357;51.948;6.132;2022-11-18T15:14:30;12.52;;;5.55;;
48578;SDS011;34357;51.948;6.132;2022-11-18T15:16:56;17.23;;;7.22;;
48578;SDS011;34357;51.948;6.132;2022-11-18T15:19:22;16.08;;;7.10;;
48578;SDS011;34357;51.948;6.132;2022-11-18T15:21:47;19.10;;;7.68;;
48578;SDS011;34357;51.948;6.132;2022-11-18T15:24:13;15.93;;;7.30;;
48578;SDS011;34357;51.948;6.132;2022-11-18T15:26:40;19.48;;;7.82;;
48578;SDS011;34357;51.948;6.132;2022-11-18T15:29:13;13.15;;;6.45;;
48578;SDS011;34357;51.948;6.132;2022-11-18T15:31:39;15.55;;;6.95;;
48578;SDS011;34357;51.948;6.132;2022-11-18T15:34:05;16.00;;;7.93;;
48578;SDS011;34357;51.948;6.132;2022-11-18T15:36:31;17.50;;;8.38;;
48578;SDS011;34357;51.948;6.132;2022-11-18T15:38:56;15.70;;;8.10;;
48578;SDS011;34357;51.948;6.132;2022-11-18T15:41:23;15.50;;;8.63;;
48578;SDS011;34357;51.948;6.132;2022-11-18T15:43:51;13.98;;;7.63;;
48578;SDS011;34357;51.948;6.132;2022-11-18T15:46:18;14.60;;;8.68;;
48578;SDS011;34357;51.948;6.132;2022-11-18T15:48:45;17.65;;;8.48;;
48578;SDS011;34357;51.948;6.132;2022-11-18T15:51:11;20.50;;;9.45;;
48578;SDS011;34357;51.948;6.132;2022-11-18T15:53:37;17.83;;;9.18;;
48578;SDS011;34357;51.948;6.132;2022-11-18T15:59:03;40.80;;;15.95;;
48578;SDS011;34357;51.948;6.132;2022-11-18T16:01:34;24.30;;;13.13;;
48578;SDS011;34357;51.948;6.132;2022-11-18T16:06:28;24.27;;;11.15;;
48578;SDS011;34357;51.948;6.132;2022-11-18T16:08:54;20.17;;;11.48;;
48578;SDS011;34357;51.948;6.132;2022-11-18T16:11:20;25.27;;;12.13;;
48578;SDS011;34357;51.948;6.132;2022-11-18T16:14:08;17.48;;;10.10;;
48578;SDS011;34357;51.948;6.132;2022-11-18T16:16:38;18.27;;;10.95;;
48578;SDS011;34357;51.948;6.132;2022-11-18T16:19:09;20.52;;;11.88;;
48578;SDS011;34357;51.948;6.132;2022-11-18T16:21:37;20.45;;;11.43;;
48578;SDS011;34357;51.948;6.132;2022-11-18T16:24:09;23.25;;;10.85;;
48578;SDS011;34357;51.948;6.132;2022-11-18T16:26:36;18.30;;;10.93;;
48578;SDS011;34357;51.948;6.132;2022-11-18T16:29:02;19.65;;;10.95;;
48578;SDS011;34357;51.948;6.132;2022-11-18T16:31:29;18.50;;;10.77;;
48578;SDS011;34357;51.948;6.132;2022-11-18T16:36:57;29.35;;;17.13;;
48578;SDS011;34357;51.948;6.132;2022-11-18T16:39:25;32.20;;;18.17;;
48578;SDS011;34357;51.948;6.132;2022-11-18T16:41:52;39.33;;;22.23;;
48578;SDS011;34357;51.948;6.132;2022-11-18T16:44:22;46.07;;;25.63;;
48578;SDS011;34357;51.948;6.132;2022-11-18T16:46:49;48.85;;;27.20;;
48578;SDS011;34357;51.948;6.132;2022-11-18T16:49:17;54.17;;;29.75;;
48578;SDS011;34357;51.948;6.132;2022-11-18T16:51:45;45.08;;;25.90;;
48578;SDS011;34357;51.948;6.132;2022-11-18T16:54:13;29.80;;;17.60;;
48578;SDS011;34357;51.948;6.132;2022-11-18T16:56:42;33.65;;;19.67;;
48578;SDS011;34357;51.948;6.132;2022-11-18T16:59:12;35.40;;;20.40;;
48578;SDS011;34357;51.948;6.132;2022-11-18T17:01:39;23.80;;;16.00;;
48578;SDS011;34357;51.948;6.132;2022-11-18T17:04:05;32.90;;;16.02;;
48578;SDS011;34357;51.948;6.132;2022-11-18T17:06:31;25.38;;;16.38;;